sensor_id;sensor_type;location;lat;lon;timestamp;P1;durP1;ratioP1;P2;durP2;ratioP2
19903;SDS011;10114;50.970;4.962;2023-06-04T00:01:04;3.58;;;0.90;;
19903;SDS011;10114;50.970;4.962;2023-06-04T00:03:30;5.55;;;1.15;;
19903;SDS011;10114;50.970;4.962;2023-06-04T00:05:57;4.00;;;1.33;;
19903;SDS011;10114;50.970;4.962;2023-06-04T00:08:23;3.88;;;1.10;;
19903;SDS011;10114;50.970;4.962;2023-06-04T00:10:50;5.15;;;1.15;;
19903;SDS011;10114;50.970;4.962;2023-06-04T00:13:16;4.07;;;1.02;;
19903;SDS011;10114;50.970;4.962;2023-06-04T00:15:42;3.08;;;1.38;;
19903;SDS011;10114;50.970;4.962;2023-06-04T00:18:08;9.15;;;1.40;;
19903;SDS011;10114;50.970;4.962;2023-06-04T00:20:35;3.42;;;1.20;;
19903;SDS011;10114;50.970;4.962;2023-06-04T00:23:02;2.95;;;1.20;;
19903;SDS011;10114;50.970;4.962;2023-06-04T00:25:28;3.50;;;1.20;;
19903;SDS011;10114;50.970;4.962;2023-06-04T00:27:54;4.00;;;1.20;;
19903;SDS011;10114;50.970;4.962;2023-06-04T00:30:20;5.00;;;1.27;;
19903;SDS011;10114;50.970;4.962;2023-06-04T00:32:46;6.43;;;1.67;;
19903;SDS011;10114;50.970;4.962;2023-06-04T00:35:12;2.80;;;1.00;;
19903;SDS011;10114;50.970;4.962;2023-06-04T00:37:38;5.45;;;1.40;;
19903;SDS011;10114;50.970;4.962;2023-06-04T00:40:04;3.20;;;1.25;;
19903;SDS011;10114;50.970;4.962;2023-06-04T00:42:31;4.03;;;1.58;;
19903;SDS011;10114;50.970;4.962;2023-06-04T00:44:57;4.18;;;1.35;;
19903;SDS011;10114;50.970;4.962;2023-06-04T00:47:23;6.00;;;1.27;;
19903;SDS011;10114;50.970;4.962;2023-06-04T00:49:49;5.25;;;1.15;;
19903;SDS011;10114;50.970;4.962;2023-06-04T00:52:15;7.07;;;1.17;;
19903;SDS011;10114;50.970;4.962;2023-06-04T00:54:42;3.67;;;1.23;;
19903;SDS011;10114;50.970;4.962;2023-06-04T00:57:08;5.95;;;1.33;;
19903;SDS011;10114;50.970;4.962;2023-06-04T00:59:35;3.40;;;1.02;;
19903;SDS011;10114;50.970;4.962;2023-06-04T01:02:11;3.88;;;1.20;;
19903;SDS011;10114;50.970;4.962;2023-06-04T01:04:53;2.70;;;1.10;;
19903;SDS011;10114;50.970;4.962;2023-06-04T01:07:20;3.92;;;1.17;;
19903;SDS011;10114;50.970;4.962;2023-06-04T01:09:48;2.50;;;1.02;;
19903;SDS011;10114;50.970;4.962;2023-06-04T01:12:14;4.28;;;1.30;;
19903;SDS011;10114;50.970;4.962;2023-06-04T01:14:40;2.85;;;1.05;;
19903;SDS011;10114;50.970;4.962;2023-06-04T01:17:10;4.70;;;1.20;;
19903;SDS011;10114;50.970;4.962;2023-06-04T01:25:33;2.75;;;1.08;;
19903;SDS011;10114;50.970;4.962;2023-06-04T01:28:01;3.80;;;1.05;;
19903;SDS011;10114;50.970;4.962;2023-06-04T01:30:29;4.22;;;1.10;;
19903;SDS011;10114;50.970;4.962;2023-06-04T01:32:56;3.15;;;1.27;;
19903;SDS011;10114;50.970;4.962;2023-06-04T01:35:23;3.70;;;1.02;;
19903;SDS011;10114;50.970;4.962;2023-06-04T01:37:49;4.07;;;1.50;;
19903;SDS011;10114;50.970;4.962;2023-06-04T01:40:16;3.92;;;1.15;;
19903;SDS011;10114;50.970;4.962;2023-06-04T01:42:42;5.03;;;1.33;;
19903;SDS011;10114;50.970;4.962;2023-06-04T01:45:08;2.45;;;1.08;;
19903;SDS011;10114;50.970;4.962;2023-06-04T01:47:35;6.78;;;1.40;;
19903;SDS011;10114;50.970;4.962;2023-06-04T01:50:01;6.57;;;1.85;;
19903;SDS011;10114;50.970;4.962;2023-06-04T01:52:27;3.28;;;1.23;;
19903;SDS011;10114;50.970;4.962;2023-06-04T01:54:53;7.45;;;1.98;;
19903;SDS011;10114;50.970;4.962;2023-06-04T01:57:21;9.20;;;1.60;;
19903;SDS011;10114;50.970;4.962;2023-06-04T01:59:47;8.00;;;2.30;;
19903;SDS011;10114;50.970;4.962;2023-06-04T02:02:14;5.65;;;1.60;;
19903;SDS011;10114;50.970;4.962;2023-06-04T02:04:40;7.00;;;1.55;;
19903;SDS011;10114;50.970;4.962;2023-06-04T02:07:09;4.05;;;1.67;;
19903;SDS011;10114;50.970;4.962;2023-06-04T02:09:36;5.45;;;1.65;;
19903;SDS011;10114;50.970;4.962;2023-06-04T02:12:03;7.47;;;1.48;;
19903;SDS011;10114;50.970;4.962;2023-06-04T02:14:29;3.83;;;1.30;;
19903;SDS011;10114;50.970;4.962;2023-06-04T02:16:55;3.67;;;1.58;;
19903;SDS011;10114;50.970;4.962;2023-06-04T02:19:25;2.92;;;1.48;;
19903;SDS011;10114;50.970;4.962;2023-06-04T02:21:55;4.45;;;1.70;;
19903;SDS011;10114;50.970;4.962;2023-06-04T02:24:21;3.83;;;1.40;;
19903;SDS011;10114;50.970;4.962;2023-06-04T02:26:47;6.15;;;1.63;;
19903;SDS011;10114;50.970;4.962;2023-06-04T02:29:13;5.45;;;1.67;;
19903;SDS011;10114;50.970;4.962;2023-06-04T02:31:39;5.00;;;1.70;;
19903;SDS011;10114;50.970;4.962;2023-06-04T02:34:05;4.22;;;1.55;;
19903;SDS011;10114;50.970;4.962;2023-06-04T02:36:31;4.40;;;1.55;;
19903;SDS011;10114;50.970;4.962;2023-06-04T02:38:57;6.85;;;1.85;;
19903;SDS011;10114;50.970;4.962;2023-06-04T02:41:23;4.50;;;1.73;;
19903;SDS011;10114;50.970;4.962;2023-06-04T02:43:50;4.90;;;1.83;;
19903;SDS011;10114;50.970;4.962;2023-06-04T02:46:16;4.05;;;1.60;;
19903;SDS011;10114;50.970;4.962;2023-06-04T02:48:42;5.47;;;1.45;;
19903;SDS011;10114;50.970;4.962;2023-06-04T02:51:08;4.88;;;2.00;;
19903;SDS011;10114;50.970;4.962;2023-06-04T02:53:35;6.00;;;2.00;;
19903;SDS011;10114;50.970;4.962;2023-06-04T02:56:02;6.57;;;1.60;;
19903;SDS011;10114;50.970;4.962;2023-06-04T02:58:28;3.85;;;1.60;;
19903;SDS011;10114;50.970;4.962;2023-06-04T03:00:54;6.55;;;1.90;;
19903;SDS011;10114;50.970;4.962;2023-06-04T03:03:20;4.05;;;1.63;;
19903;SDS011;10114;50.970;4.962;2023-06-04T03:05:46;5.15;;;1.63;;
19903;SDS011;10114;50.970;4.962;2023-06-04T03:08:13;4.15;;;1.73;;
19903;SDS011;10114;50.970;4.962;2023-06-04T03:10:39;5.75;;;1.80;;
19903;SDS011;10114;50.970;4.962;2023-06-04T03:13:05;3.80;;;1.42;;
19903;SDS011;10114;50.970;4.962;2023-06-04T03:15:31;4.25;;;1.65;;
19903;SDS011;10114;50.970;4.962;2023-06-04T03:17:57;9.45;;;2.35;;
19903;SDS011;10114;50.970;4.962;2023-06-04T03:20:23;5.15;;;1.88;;
19903;SDS011;10114;50.970;4.962;2023-06-04T03:22:49;5.03;;;1.80;;
19903;SDS011;10114;50.970;4.962;2023-06-04T03:25:15;7.32;;;2.03;;
19903;SDS011;10114;50.970;4.962;2023-06-04T03:27:41;11.18;;;2.10;;
19903;SDS011;10114;50.970;4.962;2023-06-04T03:30:08;7.30;;;2.05;;
19903;SDS011;10114;50.970;4.962;2023-06-04T03:32:34;4.35;;;1.77;;
19903;SDS011;10114;50.970;4.962;2023-06-04T03:35:00;4.85;;;1.85;;
19903;SDS011;10114;50.970;4.962;2023-06-04T03:37:28;3.67;;;1.60;;
19903;SDS011;10114;50.970;4.962;2023-06-04T03:39:54;5.78;;;1.83;;
19903;SDS011;10114;50.970;4.962;2023-06-04T03:42:20;7.63;;;2.10;;
19903;SDS011;10114;50.970;4.962;2023-06-04T03:44:46;6.82;;;1.85;;
19903;SDS011;10114;50.970;4.962;2023-06-04T03:47:12;4.38;;;1.55;;
19903;SDS011;10114;50.970;4.962;2023-06-04T03:49:38;4.45;;;1.58;;
19903;SDS011;10114;50.970;4.962;2023-06-04T03:52:04;5.85;;;1.98;;
19903;SDS011;10114;50.970;4.962;2023-06-04T03:54:30;9.00;;;2.25;;
19903;SDS011;10114;50.970;4.962;2023-06-04T03:56:56;5.80;;;1.67;;
19903;SDS011;10114;50.970;4.962;2023-06-04T03:59:22;4.50;;;1.80;;
19903;SDS011;10114;50.970;4.962;2023-06-04T04:01:48;4.47;;;1.48;;
19903;SDS011;10114;50.970;4.962;2023-06-04T04:04:14;5.85;;;1.55;;
19903;SDS011;10114;50.970;4.962;2023-06-04T04:06:40;5.22;;;1.67;;
19903;SDS011;10114;50.970;4.962;2023-06-04T04:09:06;5.90;;;2.17;;
19903;SDS011;10114;50.970;4.962;2023-06-04T04:11:32;4.43;;;1.65;;
19903;SDS011;10114;50.970;4.962;2023-06-04T04:13:58;6.20;;;1.80;;
19903;SDS011;10114;50.970;4.962;2023-06-04T04:16:25;6.35;;;2.08;;
19903;SDS011;10114;50.970;4.962;2023-06-04T04:18:52;6.07;;;1.55;;
19903;SDS011;10114;50.970;4.962;2023-06-04T04:21:19;5.43;;;1.95;;
19903;SDS011;10114;50.970;4.962;2023-06-04T04:23:46;7.03;;;2.25;;
19903;SDS011;10114;50.970;4.962;2023-06-04T04:26:12;7.50;;;1.92;;
19903;SDS011;10114;50.970;4.962;2023-06-04T04:28:41;7.38;;;1.77;;
19903;SDS011;10114;50.970;4.962;2023-06-04T04:31:08;7.70;;;1.48;;
19903;SDS011;10114;50.970;4.962;2023-06-04T04:33:36;6.47;;;1.60;;
19903;SDS011;10114;50.970;4.962;2023-06-04T04:36:04;5.28;;;1.83;;
19903;SDS011;10114;50.970;4.962;2023-06-04T04:38:33;5.47;;;1.98;;
19903;SDS011;10114;50.970;4.962;2023-06-04T04:40:59;4.60;;;1.90;;
19903;SDS011;10114;50.970;4.962;2023-06-04T04:43:29;5.70;;;1.58;;
19903;SDS011;10114;50.970;4.962;2023-06-04T04:45:56;6.57;;;1.83;;
19903;SDS011;10114;50.970;4.962;2023-06-04T04:48:22;5.38;;;2.03;;
19903;SDS011;10114;50.970;4.962;2023-06-04T04:50:48;4.57;;;1.67;;
19903;SDS011;10114;50.970;4.962;2023-06-04T04:53:14;4.95;;;1.77;;
19903;SDS011;10114;50.970;4.962;2023-06-04T04:55:40;5.50;;;2.00;;
19903;SDS011;10114;50.970;4.962;2023-06-04T04:58:06;5.53;;;1.90;;
19903;SDS011;10114;50.970;4.962;2023-06-04T05:00:32;4.72;;;1.70;;
19903;SDS011;10114;50.970;4.962;2023-06-04T05:02:58;5.95;;;2.20;;
19903;SDS011;10114;50.970;4.962;2023-06-04T05:05:24;5.22;;;1.77;;
19903;SDS011;10114;50.970;4.962;2023-06-04T05:07:50;5.35;;;1.80;;
19903;SDS011;10114;50.970;4.962;2023-06-04T05:10:16;7.95;;;1.95;;
19903;SDS011;10114;50.970;4.962;2023-06-04T05:12:57;4.13;;;1.88;;
19903;SDS011;10114;50.970;4.962;2023-06-04T05:15:24;5.68;;;1.85;;
19903;SDS011;10114;50.970;4.962;2023-06-04T05:17:51;5.97;;;2.20;;
19903;SDS011;10114;50.970;4.962;2023-06-04T05:20:18;4.57;;;1.67;;
19903;SDS011;10114;50.970;4.962;2023-06-04T05:22:44;6.20;;;1.98;;
19903;SDS011;10114;50.970;4.962;2023-06-04T05:25:10;4.68;;;2.00;;
19903;SDS011;10114;50.970;4.962;2023-06-04T05:27:37;10.88;;;2.00;;
19903;SDS011;10114;50.970;4.962;2023-06-04T05:30:03;7.10;;;2.22;;
19903;SDS011;10114;50.970;4.962;2023-06-04T05:32:29;3.63;;;1.75;;
19903;SDS011;10114;50.970;4.962;2023-06-04T05:34:57;7.32;;;2.45;;
19903;SDS011;10114;50.970;4.962;2023-06-04T05:37:24;5.43;;;2.42;;
19903;SDS011;10114;50.970;4.962;2023-06-04T05:39:52;8.07;;;2.05;;
19903;SDS011;10114;50.970;4.962;2023-06-04T05:42:18;5.20;;;1.83;;
19903;SDS011;10114;50.970;4.962;2023-06-04T05:44:44;6.85;;;1.90;;
19903;SDS011;10114;50.970;4.962;2023-06-04T05:47:10;7.78;;;2.28;;
19903;SDS011;10114;50.970;4.962;2023-06-04T05:49:36;6.63;;;2.22;;
19903;SDS011;10114;50.970;4.962;2023-06-04T05:52:02;7.40;;;2.00;;
19903;SDS011;10114;50.970;4.962;2023-06-04T05:54:29;6.57;;;2.10;;
19903;SDS011;10114;50.970;4.962;2023-06-04T05:56:55;8.43;;;2.33;;
19903;SDS011;10114;50.970;4.962;2023-06-04T05:59:21;8.50;;;2.35;;
19903;SDS011;10114;50.970;4.962;2023-06-04T06:01:48;4.70;;;1.92;;
19903;SDS011;10114;50.970;4.962;2023-06-04T06:04:14;12.70;;;3.25;;
19903;SDS011;10114;50.970;4.962;2023-06-04T06:06:41;4.53;;;1.88;;
19903;SDS011;10114;50.970;4.962;2023-06-04T06:09:13;4.18;;;1.73;;
19903;SDS011;10114;50.970;4.962;2023-06-04T06:11:40;5.85;;;2.30;;
19903;SDS011;10114;50.970;4.962;2023-06-04T06:14:06;5.05;;;2.00;;
19903;SDS011;10114;50.970;4.962;2023-06-04T06:16:32;6.90;;;1.85;;
19903;SDS011;10114;50.970;4.962;2023-06-04T06:18:58;4.55;;;1.90;;
19903;SDS011;10114;50.970;4.962;2023-06-04T06:21:24;3.70;;;1.70;;
19903;SDS011;10114;50.970;4.962;2023-06-04T06:23:51;4.70;;;1.70;;
19903;SDS011;10114;50.970;4.962;2023-06-04T06:26:17;6.45;;;1.90;;
19903;SDS011;10114;50.970;4.962;2023-06-04T06:28:43;7.57;;;2.28;;
19903;SDS011;10114;50.970;4.962;2023-06-04T06:31:09;6.00;;;1.80;;
19903;SDS011;10114;50.970;4.962;2023-06-04T06:33:35;9.15;;;1.88;;
19903;SDS011;10114;50.970;4.962;2023-06-04T06:36:06;4.93;;;1.92;;
19903;SDS011;10114;50.970;4.962;2023-06-04T06:38:32;5.35;;;1.80;;
19903;SDS011;10114;50.970;4.962;2023-06-04T06:40:58;6.13;;;1.73;;
19903;SDS011;10114;50.970;4.962;2023-06-04T06:43:24;4.80;;;1.55;;
19903;SDS011;10114;50.970;4.962;2023-06-04T06:45:50;8.02;;;1.50;;
19903;SDS011;10114;50.970;4.962;2023-06-04T06:48:16;6.18;;;1.83;;
19903;SDS011;10114;50.970;4.962;2023-06-04T06:50:42;6.55;;;1.58;;
19903;SDS011;10114;50.970;4.962;2023-06-04T06:53:08;5.78;;;1.70;;
19903;SDS011;10114;50.970;4.962;2023-06-04T06:55:34;5.28;;;1.83;;
19903;SDS011;10114;50.970;4.962;2023-06-04T06:58:00;5.68;;;2.00;;
19903;SDS011;10114;50.970;4.962;2023-06-04T07:00:26;4.72;;;1.40;;
19903;SDS011;10114;50.970;4.962;2023-06-04T07:02:53;6.18;;;1.98;;
19903;SDS011;10114;50.970;4.962;2023-06-04T07:05:19;5.22;;;1.80;;
19903;SDS011;10114;50.970;4.962;2023-06-04T07:07:45;5.40;;;1.98;;
19903;SDS011;10114;50.970;4.962;2023-06-04T07:10:11;4.47;;;1.60;;
19903;SDS011;10114;50.970;4.962;2023-06-04T07:12:38;7.28;;;1.50;;
19903;SDS011;10114;50.970;4.962;2023-06-04T07:15:05;7.10;;;1.95;;
19903;SDS011;10114;50.970;4.962;2023-06-04T07:17:31;5.40;;;1.60;;
19903;SDS011;10114;50.970;4.962;2023-06-04T07:19:57;5.47;;;1.60;;
19903;SDS011;10114;50.970;4.962;2023-06-04T07:22:23;6.47;;;2.15;;
19903;SDS011;10114;50.970;4.962;2023-06-04T07:24:49;8.82;;;2.22;;
19903;SDS011;10114;50.970;4.962;2023-06-04T07:27:15;5.53;;;1.50;;
19903;SDS011;10114;50.970;4.962;2023-06-04T07:29:44;6.70;;;1.75;;
19903;SDS011;10114;50.970;4.962;2023-06-04T07:32:11;3.50;;;1.30;;
19903;SDS011;10114;50.970;4.962;2023-06-04T07:34:40;4.22;;;1.65;;
19903;SDS011;10114;50.970;4.962;2023-06-04T07:37:06;5.07;;;1.58;;
19903;SDS011;10114;50.970;4.962;2023-06-04T07:39:34;5.85;;;1.63;;
19903;SDS011;10114;50.970;4.962;2023-06-04T07:42:00;5.70;;;1.70;;
19903;SDS011;10114;50.970;4.962;2023-06-04T07:44:26;6.18;;;1.88;;
19903;SDS011;10114;50.970;4.962;2023-06-04T07:46:52;4.63;;;1.70;;
19903;SDS011;10114;50.970;4.962;2023-06-04T07:49:18;5.53;;;1.75;;
19903;SDS011;10114;50.970;4.962;2023-06-04T07:51:45;4.45;;;1.48;;
19903;SDS011;10114;50.970;4.962;2023-06-04T07:54:11;3.85;;;1.60;;
19903;SDS011;10114;50.970;4.962;2023-06-04T07:56:39;5.45;;;1.40;;
19903;SDS011;10114;50.970;4.962;2023-06-04T07:59:05;4.05;;;1.58;;
19903;SDS011;10114;50.970;4.962;2023-06-04T08:01:31;3.05;;;1.23;;
19903;SDS011;10114;50.970;4.962;2023-06-04T08:03:57;5.32;;;1.55;;
19903;SDS011;10114;50.970;4.962;2023-06-04T08:06:24;5.50;;;1.45;;
19903;SDS011;10114;50.970;4.962;2023-06-04T08:08:51;5.65;;;1.38;;
19903;SDS011;10114;50.970;4.962;2023-06-04T08:11:17;4.93;;;1.42;;
19903;SDS011;10114;50.970;4.962;2023-06-04T08:13:43;4.25;;;1.60;;
19903;SDS011;10114;50.970;4.962;2023-06-04T08:16:10;6.00;;;1.70;;
19903;SDS011;10114;50.970;4.962;2023-06-04T08:18:39;3.42;;;1.27;;
19903;SDS011;10114;50.970;4.962;2023-06-04T08:21:08;5.20;;;1.40;;
19903;SDS011;10114;50.970;4.962;2023-06-04T08:23:35;3.53;;;1.40;;
19903;SDS011;10114;50.970;4.962;2023-06-04T08:26:01;3.95;;;1.80;;
19903;SDS011;10114;50.970;4.962;2023-06-04T08:28:27;4.35;;;1.38;;
19903;SDS011;10114;50.970;4.962;2023-06-04T08:30:53;4.90;;;1.48;;
19903;SDS011;10114;50.970;4.962;2023-06-04T08:33:20;5.72;;;1.77;;
19903;SDS011;10114;50.970;4.962;2023-06-04T08:35:46;4.05;;;1.50;;
19903;SDS011;10114;50.970;4.962;2023-06-04T08:38:12;4.13;;;1.67;;
19903;SDS011;10114;50.970;4.962;2023-06-04T08:40:38;4.88;;;1.52;;
19903;SDS011;10114;50.970;4.962;2023-06-04T08:43:04;6.18;;;1.27;;
19903;SDS011;10114;50.970;4.962;2023-06-04T08:45:32;2.97;;;1.35;;
19903;SDS011;10114;50.970;4.962;2023-06-04T08:47:58;7.40;;;1.63;;
19903;SDS011;10114;50.970;4.962;2023-06-04T08:50:25;8.52;;;1.38;;
19903;SDS011;10114;50.970;4.962;2023-06-04T08:52:52;5.53;;;1.17;;
19903;SDS011;10114;50.970;4.962;2023-06-04T08:55:19;3.08;;;1.35;;
19903;SDS011;10114;50.970;4.962;2023-06-04T08:57:45;5.40;;;1.40;;
19903;SDS011;10114;50.970;4.962;2023-06-04T09:00:13;4.63;;;1.48;;
19903;SDS011;10114;50.970;4.962;2023-06-04T09:02:39;4.72;;;1.50;;
19903;SDS011;10114;50.970;4.962;2023-06-04T09:05:06;4.32;;;1.48;;
19903;SDS011;10114;50.970;4.962;2023-06-04T09:07:38;3.53;;;1.33;;
19903;SDS011;10114;50.970;4.962;2023-06-04T09:10:06;7.25;;;1.50;;
19903;SDS011;10114;50.970;4.962;2023-06-04T09:12:33;6.38;;;1.20;;
19903;SDS011;10114;50.970;4.962;2023-06-04T09:15:02;5.28;;;1.67;;
19903;SDS011;10114;50.970;4.962;2023-06-04T09:17:28;6.25;;;1.50;;
19903;SDS011;10114;50.970;4.962;2023-06-04T09:19:54;4.10;;;1.60;;
19903;SDS011;10114;50.970;4.962;2023-06-04T09:22:30;3.10;;;1.30;;
19903;SDS011;10114;50.970;4.962;2023-06-04T09:24:57;3.42;;;1.20;;
19903;SDS011;10114;50.970;4.962;2023-06-04T09:27:23;3.42;;;1.30;;
19903;SDS011;10114;50.970;4.962;2023-06-04T09:34:48;5.28;;;1.33;;
19903;SDS011;10114;50.970;4.962;2023-06-04T09:37:15;6.88;;;1.63;;
19903;SDS011;10114;50.970;4.962;2023-06-04T09:39:44;6.40;;;1.45;;
19903;SDS011;10114;50.970;4.962;2023-06-04T09:42:18;5.45;;;1.15;;
19903;SDS011;10114;50.970;4.962;2023-06-04T09:44:44;3.05;;;1.25;;
19903;SDS011;10114;50.970;4.962;2023-06-04T09:47:10;5.13;;;1.08;;
19903;SDS011;10114;50.970;4.962;2023-06-04T09:49:40;5.53;;;1.45;;
19903;SDS011;10114;50.970;4.962;2023-06-04T09:52:09;4.07;;;1.33;;
19903;SDS011;10114;50.970;4.962;2023-06-04T09:54:38;4.43;;;1.05;;
19903;SDS011;10114;50.970;4.962;2023-06-04T09:57:13;5.43;;;1.20;;
19903;SDS011;10114;50.970;4.962;2023-06-04T09:59:46;4.28;;;1.33;;
19903;SDS011;10114;50.970;4.962;2023-06-04T10:02:18;6.07;;;1.15;;
19903;SDS011;10114;50.970;4.962;2023-06-04T10:04:44;4.80;;;1.17;;
19903;SDS011;10114;50.970;4.962;2023-06-04T10:07:14;6.57;;;1.67;;
19903;SDS011;10114;50.970;4.962;2023-06-04T10:09:41;5.70;;;1.42;;
19903;SDS011;10114;50.970;4.962;2023-06-04T10:12:14;3.80;;;1.23;;
19903;SDS011;10114;50.970;4.962;2023-06-04T10:14:43;5.15;;;1.30;;
19903;SDS011;10114;50.970;4.962;2023-06-04T10:17:11;5.30;;;1.50;;
19903;SDS011;10114;50.970;4.962;2023-06-04T10:19:38;6.28;;;1.27;;
19903;SDS011;10114;50.970;4.962;2023-06-04T10:22:04;3.88;;;1.55;;
19903;SDS011;10114;50.970;4.962;2023-06-04T10:24:30;3.30;;;1.30;;
19903;SDS011;10114;50.970;4.962;2023-06-04T10:26:57;4.18;;;1.23;;
19903;SDS011;10114;50.970;4.962;2023-06-04T10:29:25;5.07;;;1.42;;
19903;SDS011;10114;50.970;4.962;2023-06-04T10:31:54;3.10;;;1.10;;
19903;SDS011;10114;50.970;4.962;2023-06-04T10:34:20;3.20;;;1.00;;
19903;SDS011;10114;50.970;4.962;2023-06-04T10:36:47;3.90;;;1.00;;
19903;SDS011;10114;50.970;4.962;2023-06-04T10:39:13;6.22;;;1.50;;
19903;SDS011;10114;50.970;4.962;2023-06-04T10:41:39;5.85;;;1.33;;
19903;SDS011;10114;50.970;4.962;2023-06-04T10:44:06;5.97;;;1.30;;
19903;SDS011;10114;50.970;4.962;2023-06-04T10:46:39;7.75;;;1.30;;
19903;SDS011;10114;50.970;4.962;2023-06-04T10:49:05;4.90;;;1.40;;
19903;SDS011;10114;50.970;4.962;2023-06-04T10:51:32;8.57;;;1.25;;
19903;SDS011;10114;50.970;4.962;2023-06-04T10:54:00;6.22;;;1.25;;
19903;SDS011;10114;50.970;4.962;2023-06-04T10:56:27;3.88;;;1.25;;
19903;SDS011;10114;50.970;4.962;2023-06-04T10:58:53;4.10;;;1.25;;
19903;SDS011;10114;50.970;4.962;2023-06-04T11:01:25;2.78;;;1.00;;
19903;SDS011;10114;50.970;4.962;2023-06-04T11:03:52;4.60;;;1.20;;
19903;SDS011;10114;50.970;4.962;2023-06-04T11:06:18;4.63;;;1.00;;
19903;SDS011;10114;50.970;4.962;2023-06-04T11:08:45;4.07;;;1.40;;
19903;SDS011;10114;50.970;4.962;2023-06-04T11:11:12;3.33;;;1.30;;
19903;SDS011;10114;50.970;4.962;2023-06-04T11:13:39;2.70;;;1.27;;
19903;SDS011;10114;50.970;4.962;2023-06-04T11:16:17;4.30;;;1.02;;
19903;SDS011;10114;50.970;4.962;2023-06-04T11:18:44;3.67;;;1.23;;
19903;SDS011;10114;50.970;4.962;2023-06-04T11:21:19;6.18;;;1.50;;
19903;SDS011;10114;50.970;4.962;2023-06-04T11:23:45;4.00;;;1.35;;
19903;SDS011;10114;50.970;4.962;2023-06-04T11:26:11;3.63;;;1.33;;
19903;SDS011;10114;50.970;4.962;2023-06-04T11:28:38;5.88;;;1.08;;
19903;SDS011;10114;50.970;4.962;2023-06-04T11:31:05;7.00;;;1.20;;
19903;SDS011;10114;50.970;4.962;2023-06-04T11:33:43;6.18;;;1.50;;
19903;SDS011;10114;50.970;4.962;2023-06-04T11:36:10;4.22;;;1.58;;
19903;SDS011;10114;50.970;4.962;2023-06-04T11:38:36;3.58;;;1.00;;
19903;SDS011;10114;50.970;4.962;2023-06-04T11:41:02;3.83;;;1.08;;
19903;SDS011;10114;50.970;4.962;2023-06-04T11:43:30;3.85;;;1.08;;
19903;SDS011;10114;50.970;4.962;2023-06-04T11:45:58;3.50;;;1.40;;
19903;SDS011;10114;50.970;4.962;2023-06-04T11:48:24;8.75;;;1.63;;
19903;SDS011;10114;50.970;4.962;2023-06-04T11:50:50;5.90;;;0.95;;
19903;SDS011;10114;50.970;4.962;2023-06-04T11:53:16;7.65;;;1.50;;
19903;SDS011;10114;50.970;4.962;2023-06-04T11:55:43;4.90;;;1.40;;
19903;SDS011;10114;50.970;4.962;2023-06-04T11:58:09;3.42;;;1.30;;
19903;SDS011;10114;50.970;4.962;2023-06-04T12:00:35;3.55;;;1.20;;
19903;SDS011;10114;50.970;4.962;2023-06-04T12:03:01;5.07;;;1.30;;
19903;SDS011;10114;50.970;4.962;2023-06-04T12:05:30;5.10;;;1.17;;
19903;SDS011;10114;50.970;4.962;2023-06-04T12:08:06;3.35;;;1.23;;
19903;SDS011;10114;50.970;4.962;2023-06-04T12:10:38;7.85;;;1.50;;
19903;SDS011;10114;50.970;4.962;2023-06-04T12:13:04;3.40;;;1.30;;
19903;SDS011;10114;50.970;4.962;2023-06-04T12:15:30;5.43;;;1.42;;
19903;SDS011;10114;50.970;4.962;2023-06-04T12:17:56;2.95;;;1.15;;
19903;SDS011;10114;50.970;4.962;2023-06-04T12:22:58;3.58;;;1.30;;
19903;SDS011;10114;50.970;4.962;2023-06-04T12:25:27;4.63;;;1.10;;
19903;SDS011;10114;50.970;4.962;2023-06-04T12:27:53;4.60;;;1.15;;
19903;SDS011;10114;50.970;4.962;2023-06-04T12:30:20;4.25;;;1.20;;
19903;SDS011;10114;50.970;4.962;2023-06-04T12:32:47;2.97;;;1.00;;
19903;SDS011;10114;50.970;4.962;2023-06-04T12:35:13;6.10;;;1.30;;
19903;SDS011;10114;50.970;4.962;2023-06-04T12:37:41;5.30;;;1.70;;
19903;SDS011;10114;50.970;4.962;2023-06-04T12:40:07;8.50;;;1.50;;
19903;SDS011;10114;50.970;4.962;2023-06-04T12:42:34;4.55;;;1.60;;
19903;SDS011;10114;50.970;4.962;2023-06-04T12:45:00;6.70;;;1.42;;
19903;SDS011;10114;50.970;4.962;2023-06-04T12:47:26;3.45;;;1.15;;
19903;SDS011;10114;50.970;4.962;2023-06-04T12:49:52;3.47;;;1.38;;
19903;SDS011;10114;50.970;4.962;2023-06-04T12:52:18;3.88;;;1.17;;
19903;SDS011;10114;50.970;4.962;2023-06-04T12:54:44;5.57;;;1.58;;
19903;SDS011;10114;50.970;4.962;2023-06-04T12:57:10;3.00;;;0.90;;
19903;SDS011;10114;50.970;4.962;2023-06-04T12:59:36;7.28;;;1.33;;
19903;SDS011;10114;50.970;4.962;2023-06-04T13:02:02;4.15;;;1.38;;
19903;SDS011;10114;50.970;4.962;2023-06-04T13:04:28;4.40;;;1.05;;
19903;SDS011;10114;50.970;4.962;2023-06-04T13:06:55;3.08;;;1.00;;
19903;SDS011;10114;50.970;4.962;2023-06-04T13:09:24;3.95;;;1.48;;
19903;SDS011;10114;50.970;4.962;2023-06-04T13:11:50;4.93;;;1.30;;
19903;SDS011;10114;50.970;4.962;2023-06-04T13:14:16;5.93;;;1.77;;
19903;SDS011;10114;50.970;4.962;2023-06-04T13:16:42;5.70;;;1.58;;
19903;SDS011;10114;50.970;4.962;2023-06-04T13:19:10;2.22;;;1.08;;
19903;SDS011;10114;50.970;4.962;2023-06-04T13:21:36;4.55;;;1.38;;
19903;SDS011;10114;50.970;4.962;2023-06-04T13:24:02;4.25;;;1.05;;
19903;SDS011;10114;50.970;4.962;2023-06-04T13:26:28;4.13;;;1.00;;
19903;SDS011;10114;50.970;4.962;2023-06-04T13:28:54;4.80;;;1.20;;
19903;SDS011;10114;50.970;4.962;2023-06-04T13:31:20;3.25;;;1.08;;
19903;SDS011;10114;50.970;4.962;2023-06-04T13:33:47;2.83;;;1.08;;
19903;SDS011;10114;50.970;4.962;2023-06-04T13:36:13;4.40;;;1.08;;
19903;SDS011;10114;50.970;4.962;2023-06-04T13:38:39;5.97;;;1.23;;
19903;SDS011;10114;50.970;4.962;2023-06-04T13:41:08;2.35;;;1.00;;
19903;SDS011;10114;50.970;4.962;2023-06-04T13:43:34;3.30;;;1.25;;
19903;SDS011;10114;50.970;4.962;2023-06-04T13:46:00;3.63;;;1.00;;
19903;SDS011;10114;50.970;4.962;2023-06-04T13:48:27;4.35;;;1.63;;
19903;SDS011;10114;50.970;4.962;2023-06-04T13:50:53;3.97;;;0.90;;
19903;SDS011;10114;50.970;4.962;2023-06-04T13:53:19;3.72;;;1.42;;
19903;SDS011;10114;50.970;4.962;2023-06-04T13:55:45;3.80;;;1.20;;
19903;SDS011;10114;50.970;4.962;2023-06-04T13:58:11;5.80;;;1.30;;
19903;SDS011;10114;50.970;4.962;2023-06-04T14:00:39;4.25;;;1.45;;
19903;SDS011;10114;50.970;4.962;2023-06-04T14:03:06;5.35;;;0.98;;
19903;SDS011;10114;50.970;4.962;2023-06-04T14:05:32;3.30;;;1.23;;
19903;SDS011;10114;50.970;4.962;2023-06-04T14:07:58;3.63;;;1.25;;
19903;SDS011;10114;50.970;4.962;2023-06-04T14:10:24;3.75;;;1.27;;
19903;SDS011;10114;50.970;4.962;2023-06-04T14:12:50;3.75;;;1.27;;
19903;SDS011;10114;50.970;4.962;2023-06-04T14:15:16;10.15;;;1.52;;
19903;SDS011;10114;50.970;4.962;2023-06-04T14:17:42;2.83;;;0.95;;
19903;SDS011;10114;50.970;4.962;2023-06-04T14:20:08;5.05;;;1.02;;
19903;SDS011;10114;50.970;4.962;2023-06-04T14:22:35;6.22;;;1.17;;
19903;SDS011;10114;50.970;4.962;2023-06-04T14:25:04;2.38;;;1.00;;
19903;SDS011;10114;50.970;4.962;2023-06-04T14:27:31;2.83;;;1.05;;
19903;SDS011;10114;50.970;4.962;2023-06-04T14:29:57;3.00;;;0.90;;
19903;SDS011;10114;50.970;4.962;2023-06-04T14:32:23;4.57;;;1.17;;
19903;SDS011;10114;50.970;4.962;2023-06-04T14:34:49;2.63;;;0.95;;
19903;SDS011;10114;50.970;4.962;2023-06-04T14:37:15;4.32;;;1.00;;
19903;SDS011;10114;50.970;4.962;2023-06-04T14:39:41;3.72;;;1.08;;
19903;SDS011;10114;50.970;4.962;2023-06-04T14:42:07;6.60;;;1.38;;
19903;SDS011;10114;50.970;4.962;2023-06-04T14:44:33;7.05;;;1.20;;
19903;SDS011;10114;50.970;4.962;2023-06-04T14:47:00;3.53;;;1.10;;
19903;SDS011;10114;50.970;4.962;2023-06-04T14:49:26;2.70;;;1.27;;
19903;SDS011;10114;50.970;4.962;2023-06-04T14:51:52;3.35;;;1.00;;
19903;SDS011;10114;50.970;4.962;2023-06-04T14:54:18;4.93;;;1.30;;
19903;SDS011;10114;50.970;4.962;2023-06-04T14:56:44;4.43;;;1.50;;
19903;SDS011;10114;50.970;4.962;2023-06-04T14:59:10;2.88;;;1.00;;